sensor_id;sensor_type;location;lat;lon;timestamp;pressure;altitude;pressure_sealevel;temperature;humidity
59419;BME280;45224;50.904;6.038;2023-09-19T00:01:09;99156.38;;;16.54;87.41
59419;BME280;45224;50.904;6.038;2023-09-19T00:02:42;99158.03;;;16.57;87.55
59419;BME280;45224;50.904;6.038;2023-09-19T00:04:17;99160.47;;;16.61;87.00
59419;BME280;45224;50.904;6.038;2023-09-19T00:05:49;99165.69;;;16.61;87.24
59419;BME280;45224;50.904;6.038;2023-09-19T00:07:20;99165.47;;;16.68;87.27
59419;BME280;45224;50.904;6.038;2023-09-19T00:08:52;99170.00;;;16.63;87.18
59419;BME280;45224;50.904;6.038;2023-09-19T00:10:22;99169.84;;;16.67;87.24
59419;BME280;45224;50.904;6.038;2023-09-19T00:11:54;99171.44;;;16.71;86.69
59419;BME280;45224;50.904;6.038;2023-09-19T00:13:25;99171.38;;;16.73;86.05
59419;BME280;45224;50.904;6.038;2023-09-19T00:14:55;99170.69;;;16.68;86.26
59419;BME280;45224;50.904;6.038;2023-09-19T00:16:27;99170.91;;;16.61;85.95
59419;BME280;45224;50.904;6.038;2023-09-19T00:17:57;99172.47;;;16.67;85.97
59419;BME280;45224;50.904;6.038;2023-09-19T00:19:29;99169.13;;;16.64;86.49
59419;BME280;45224;50.904;6.038;2023-09-19T00:20:59;99181.38;;;16.60;86.33
59419;BME280;45224;50.904;6.038;2023-09-19T00:22:30;99174.53;;;16.57;86.87
59419;BME280;45224;50.904;6.038;2023-09-19T00:24:00;99169.22;;;16.60;86.42
59419;BME280;45224;50.904;6.038;2023-09-19T00:25:31;99176.56;;;16.49;86.50
59419;BME280;45224;50.904;6.038;2023-09-19T00:27:05;99173.16;;;16.47;86.48
59419;BME280;45224;50.904;6.038;2023-09-19T00:28:36;99177.16;;;16.57;85.81
59419;BME280;45224;50.904;6.038;2023-09-19T00:30:08;99178.72;;;16.61;85.18
59419;BME280;45224;50.904;6.038;2023-09-19T00:31:44;99185.19;;;16.51;85.92
59419;BME280;45224;50.904;6.038;2023-09-19T00:33:15;99184.97;;;16.57;85.79
59419;BME280;45224;50.904;6.038;2023-09-19T00:34:46;99183.25;;;16.56;85.68
59419;BME280;45224;50.904;6.038;2023-09-19T00:36:16;99188.31;;;16.61;85.61
59419;BME280;45224;50.904;6.038;2023-09-19T00:37:48;99181.34;;;16.61;85.19
59419;BME280;45224;50.904;6.038;2023-09-19T00:39:20;99181.38;;;16.60;85.40
59419;BME280;45224;50.904;6.038;2023-09-19T00:40:53;99187.09;;;16.46;86.41
59419;BME280;45224;50.904;6.038;2023-09-19T00:42:25;99191.53;;;16.44;86.15
59419;BME280;45224;50.904;6.038;2023-09-19T00:43:56;99192.50;;;16.40;85.93
59419;BME280;45224;50.904;6.038;2023-09-19T00:45:27;99187.09;;;16.46;85.14
59419;BME280;45224;50.904;6.038;2023-09-19T00:46:58;99195.63;;;16.51;84.85
59419;BME280;45224;50.904;6.038;2023-09-19T00:48:29;99200.94;;;16.48;84.65
59419;BME280;45224;50.904;6.038;2023-09-19T00:50:00;99193.31;;;16.42;84.82
59419;BME280;45224;50.904;6.038;2023-09-19T00:51:32;99201.06;;;16.18;85.94
59419;BME280;45224;50.904;6.038;2023-09-19T00:53:02;99193.22;;;16.18;85.77
59419;BME280;45224;50.904;6.038;2023-09-19T00:54:38;99206.13;;;16.23;85.34
59419;BME280;45224;50.904;6.038;2023-09-19T00:56:09;99206.13;;;16.23;85.01
59419;BME280;45224;50.904;6.038;2023-09-19T00:57:40;99211.59;;;16.15;85.41
59419;BME280;45224;50.904;6.038;2023-09-19T00:59:11;99210.66;;;16.16;85.54
59419;BME280;45224;50.904;6.038;2023-09-19T01:00:42;99207.06;;;16.20;84.84
59419;BME280;45224;50.904;6.038;2023-09-19T01:02:16;99210.56;;;16.19;85.15
59419;BME280;45224;50.904;6.038;2023-09-19T01:03:46;99216.75;;;16.17;85.10
59419;BME280;45224;50.904;6.038;2023-09-19T01:05:17;99211.53;;;16.17;85.34
59419;BME280;45224;50.904;6.038;2023-09-19T01:06:49;99214.28;;;16.12;85.38
59419;BME280;45224;50.904;6.038;2023-09-19T01:08:23;99210.97;;;16.07;85.29
59419;BME280;45224;50.904;6.038;2023-09-19T01:09:56;99229.09;;;16.12;85.12
59419;BME280;45224;50.904;6.038;2023-09-19T01:11:35;99226.53;;;16.10;84.99
59419;BME280;45224;50.904;6.038;2023-09-19T01:14:59;99224.06;;;16.05;85.08
59419;BME280;45224;50.904;6.038;2023-09-19T01:18:36;99229.06;;;15.83;85.70
59419;BME280;45224;50.904;6.038;2023-09-19T01:20:42;99230.44;;;15.95;85.25
59419;BME280;45224;50.904;6.038;2023-09-19T01:22:26;99221.31;;;15.82;86.00
59419;BME280;45224;50.904;6.038;2023-09-19T01:26:07;99232.84;;;15.73;86.44
59419;BME280;45224;50.904;6.038;2023-09-19T01:29:41;99233.44;;;15.83;85.50
59419;BME280;45224;50.904;6.038;2023-09-19T01:31:14;99233.69;;;15.74;86.17
59419;BME280;45224;50.904;6.038;2023-09-19T01:32:46;99240.16;;;15.60;86.58
59419;BME280;45224;50.904;6.038;2023-09-19T01:34:17;99239.47;;;15.55;86.73
59419;BME280;45224;50.904;6.038;2023-09-19T01:35:48;99235.63;;;15.67;86.36
59419;BME280;45224;50.904;6.038;2023-09-19T01:37:20;99241.69;;;15.67;86.29
59419;BME280;45224;50.904;6.038;2023-09-19T01:38:55;99243.72;;;15.58;86.81
59419;BME280;45224;50.904;6.038;2023-09-19T01:40:27;99248.84;;;15.61;86.63
59419;BME280;45224;50.904;6.038;2023-09-19T01:42:10;99254.13;;;15.58;86.92
59419;BME280;45224;50.904;6.038;2023-09-19T01:43:49;99246.31;;;15.58;86.83
59419;BME280;45224;50.904;6.038;2023-09-19T01:47:51;99247.31;;;15.54;87.74
59419;BME280;45224;50.904;6.038;2023-09-19T01:49:47;99254.31;;;15.51;88.01
59419;BME280;45224;50.904;6.038;2023-09-19T01:51:26;99250.63;;;15.59;87.21
59419;BME280;45224;50.904;6.038;2023-09-19T01:53:06;99263.66;;;15.59;87.00
59419;BME280;45224;50.904;6.038;2023-09-19T01:54:52;99249.16;;;15.48;87.76
59419;BME280;45224;50.904;6.038;2023-09-19T01:56:31;99255.34;;;15.46;87.74
59419;BME280;45224;50.904;6.038;2023-09-19T01:58:21;99270.97;;;15.46;87.70
59419;BME280;45224;50.904;6.038;2023-09-19T02:00:06;99268.31;;;15.47;87.68
59419;BME280;45224;50.904;6.038;2023-09-19T02:01:45;99264.72;;;15.51;87.26
59419;BME280;45224;50.904;6.038;2023-09-19T02:03:16;99269.94;;;15.51;86.92
59419;BME280;45224;50.904;6.038;2023-09-19T02:04:48;99272.53;;;15.51;87.29
59419;BME280;45224;50.904;6.038;2023-09-19T02:06:19;99259.75;;;15.44;87.37
59419;BME280;45224;50.904;6.038;2023-09-19T02:07:52;99266.44;;;15.52;86.74
59419;BME280;45224;50.904;6.038;2023-09-19T02:09:23;99274.22;;;15.54;86.82
59419;BME280;45224;50.904;6.038;2023-09-19T02:10:55;99268.16;;;15.54;87.06
59419;BME280;45224;50.904;6.038;2023-09-19T02:12:26;99275.06;;;15.55;87.36
59419;BME280;45224;50.904;6.038;2023-09-19T02:13:57;99270.72;;;15.55;87.07
59419;BME280;45224;50.904;6.038;2023-09-19T02:15:29;99276.69;;;15.59;86.91
59419;BME280;45224;50.904;6.038;2023-09-19T02:17:03;99268.88;;;15.59;86.73
59419;BME280;45224;50.904;6.038;2023-09-19T02:18:38;99274.38;;;15.48;87.51
59419;BME280;45224;50.904;6.038;2023-09-19T02:20:10;99274.72;;;15.36;88.15
59419;BME280;45224;50.904;6.038;2023-09-19T02:21:45;99277.81;;;15.48;87.04
59419;BME280;45224;50.904;6.038;2023-09-19T02:23:15;99280.63;;;15.42;87.80
59419;BME280;45224;50.904;6.038;2023-09-19T02:24:46;99277.91;;;15.45;87.25
59419;BME280;45224;50.904;6.038;2023-09-19T02:26:18;99278.66;;;15.50;86.64
59419;BME280;45224;50.904;6.038;2023-09-19T02:27:49;99275.31;;;15.45;86.90
59419;BME280;45224;50.904;6.038;2023-09-19T02:29:19;99270.28;;;15.39;86.94
59419;BME280;45224;50.904;6.038;2023-09-19T02:30:49;99284.22;;;15.38;87.08
59419;BME280;45224;50.904;6.038;2023-09-19T02:32:20;99273.78;;;15.38;87.21
59419;BME280;45224;50.904;6.038;2023-09-19T02:33:51;99273.69;;;15.41;86.94
59419;BME280;45224;50.904;6.038;2023-09-19T02:35:22;99278.19;;;15.36;86.93
59419;BME280;45224;50.904;6.038;2023-09-19T02:36:53;99275.66;;;15.33;86.78
59419;BME280;45224;50.904;6.038;2023-09-19T02:38:25;99268.81;;;15.29;86.90
59419;BME280;45224;50.904;6.038;2023-09-19T02:39:56;99273.16;;;15.30;86.89
59419;BME280;45224;50.904;6.038;2023-09-19T02:41:26;99274.75;;;15.34;86.59
59419;BME280;45224;50.904;6.038;2023-09-19T02:42:59;99273.06;;;15.33;86.41
59419;BME280;45224;50.904;6.038;2023-09-19T02:44:30;99273.88;;;15.35;86.22
59419;BME280;45224;50.904;6.038;2023-09-19T02:46:00;99269.81;;;15.25;86.13
59419;BME280;45224;50.904;6.038;2023-09-19T02:47:33;99269.78;;;15.26;85.96
59419;BME280;45224;50.904;6.038;2023-09-19T02:49:05;99265.50;;;15.24;86.17
59419;BME280;45224;50.904;6.038;2023-09-19T02:50:36;99276.59;;;15.30;85.62
59419;BME280;45224;50.904;6.038;2023-09-19T02:52:07;99271.44;;;15.29;85.60
59419;BME280;45224;50.904;6.038;2023-09-19T02:53:37;99276.88;;;15.21;85.71
59419;BME280;45224;50.904;6.038;2023-09-19T02:55:08;99269.09;;;15.20;85.84
59419;BME280;45224;50.904;6.038;2023-09-19T02:56:39;99270.94;;;15.14;85.84
59419;BME280;45224;50.904;6.038;2023-09-19T02:58:10;99268.41;;;15.11;86.24
59419;BME280;45224;50.904;6.038;2023-09-19T02:59:42;99273.69;;;15.10;85.95
59419;BME280;45224;50.904;6.038;2023-09-19T03:01:14;99279.59;;;15.17;85.36
59419;BME280;45224;50.904;6.038;2023-09-19T03:02:45;99274.53;;;15.10;85.75
59419;BME280;45224;50.904;6.038;2023-09-19T03:04:16;99270.88;;;15.18;85.22
59419;BME280;45224;50.904;6.038;2023-09-19T03:05:52;99276.16;;;15.14;85.18
59419;BME280;45224;50.904;6.038;2023-09-19T03:07:23;99284.81;;;15.17;85.16
59419;BME280;45224;50.904;6.038;2023-09-19T03:08:55;99278.63;;;15.19;84.41
59419;BME280;45224;50.904;6.038;2023-09-19T03:10:27;99284.88;;;15.13;84.80
59419;BME280;45224;50.904;6.038;2023-09-19T03:11:58;99283.16;;;15.12;84.71
59419;BME280;45224;50.904;6.038;2023-09-19T03:13:31;99285.66;;;15.17;84.56
59419;BME280;45224;50.904;6.038;2023-09-19T03:15:02;99285.75;;;15.12;84.50
59419;BME280;45224;50.904;6.038;2023-09-19T03:16:34;99288.28;;;15.15;84.35
59419;BME280;45224;50.904;6.038;2023-09-19T03:18:05;99286.50;;;15.18;84.42
59419;BME280;45224;50.904;6.038;2023-09-19T03:19:37;99290.25;;;15.07;84.74
59419;BME280;45224;50.904;6.038;2023-09-19T03:21:09;99288.28;;;15.15;84.06
59419;BME280;45224;50.904;6.038;2023-09-19T03:22:40;99292.34;;;15.26;83.45
59419;BME280;45224;50.904;6.038;2023-09-19T03:24:11;99283.88;;;15.18;83.97
59419;BME280;45224;50.904;6.038;2023-09-19T03:25:43;99288.22;;;15.19;84.30
59419;BME280;45224;50.904;6.038;2023-09-19T03:27:14;99286.53;;;15.16;84.23
59419;BME280;45224;50.904;6.038;2023-09-19T03:28:46;99288.28;;;15.15;84.11
59419;BME280;45224;50.904;6.038;2023-09-19T03:30:17;99288.28;;;15.15;84.05
59419;BME280;45224;50.904;6.038;2023-09-19T03:31:48;99280.63;;;15.09;84.98
59419;BME280;45224;50.904;6.038;2023-09-19T03:33:19;99285.75;;;15.12;84.43
59419;BME280;45224;50.904;6.038;2023-09-19T03:34:50;99293.56;;;15.12;84.40
59419;BME280;45224;50.904;6.038;2023-09-19T03:36:21;99299.81;;;15.07;84.51
59419;BME280;45224;50.904;6.038;2023-09-19T03:37:51;99289.22;;;15.13;84.10
59419;BME280;45224;50.904;6.038;2023-09-19T03:39:23;99291.06;;;15.09;84.65
59419;BME280;45224;50.904;6.038;2023-09-19T03:40:53;99295.38;;;15.10;84.10
59419;BME280;45224;50.904;6.038;2023-09-19T03:42:24;99291.97;;;15.08;84.44
59419;BME280;45224;50.904;6.038;2023-09-19T03:43:57;99290.41;;;15.01;84.87
59419;BME280;45224;50.904;6.038;2023-09-19T03:45:27;99285.19;;;15.01;84.56
59419;BME280;45224;50.904;6.038;2023-09-19T03:46:58;99285.19;;;15.01;84.56
59419;BME280;45224;50.904;6.038;2023-09-19T03:48:29;99282.09;;;14.87;85.24
59419;BME280;45224;50.904;6.038;2023-09-19T03:50:01;99283.03;;;14.84;85.06
59419;BME280;45224;50.904;6.038;2023-09-19T03:51:32;99288.25;;;14.84;85.06
59419;BME280;45224;50.904;6.038;2023-09-19T03:53:05;99293.16;;;14.95;84.47
59419;BME280;45224;50.904;6.038;2023-09-19T03:54:37;99290.56;;;14.95;84.48
59419;BME280;45224;50.904;6.038;2023-09-19T03:56:08;99287.22;;;14.90;84.21
59419;BME280;45224;50.904;6.038;2023-09-19T03:57:38;99282.75;;;14.95;83.96
59419;BME280;45224;50.904;6.038;2023-09-19T03:59:09;99281.97;;;14.91;84.06
59419;BME280;45224;50.904;6.038;2023-09-19T04:00:39;99299.66;;;14.78;84.01
59419;BME280;45224;50.904;6.038;2023-09-19T04:02:10;99283.00;;;14.86;83.98
59419;BME280;45224;50.904;6.038;2023-09-19T04:03:53;99298.66;;;14.84;83.92
59419;BME280;45224;50.904;6.038;2023-09-19T04:05:24;99283.03;;;14.84;83.32
59419;BME280;45224;50.904;6.038;2023-09-19T04:06:54;99299.50;;;14.85;83.41
59419;BME280;45224;50.904;6.038;2023-09-19T04:08:25;99297.78;;;14.84;83.45
59419;BME280;45224;50.904;6.038;2023-09-19T04:09:55;99292.59;;;14.84;82.96
59419;BME280;45224;50.904;6.038;2023-09-19T04:11:26;99291.84;;;14.78;83.36
59419;BME280;45224;50.904;6.038;2023-09-19T04:12:56;99294.38;;;14.82;83.20
59419;BME280;45224;50.904;6.038;2023-09-19T04:14:27;99285.75;;;14.79;83.25
59419;BME280;45224;50.904;6.038;2023-09-19T04:15:57;99292.03;;;14.71;83.83
59419;BME280;45224;50.904;6.038;2023-09-19T04:17:28;99291.16;;;14.72;83.51
59419;BME280;45224;50.904;6.038;2023-09-19T04:18:58;99288.56;;;14.72;83.70
59419;BME280;45224;50.904;6.038;2023-09-19T04:20:29;99291.13;;;14.73;83.58
59419;BME280;45224;50.904;6.038;2023-09-19T04:21:59;99291.16;;;14.72;83.26
59419;BME280;45224;50.904;6.038;2023-09-19T04:23:30;99280.84;;;14.67;83.56
59419;BME280;45224;50.904;6.038;2023-09-19T04:25:01;99280.13;;;14.62;83.76
59419;BME280;45224;50.904;6.038;2023-09-19T04:26:33;99286.13;;;14.64;83.81
59419;BME280;45224;50.904;6.038;2023-09-19T04:28:04;99286.13;;;14.64;83.71
59419;BME280;45224;50.904;6.038;2023-09-19T04:29:36;99293.59;;;14.78;82.99
59419;BME280;45224;50.904;6.038;2023-09-19T04:31:08;99294.53;;;14.75;82.89
59419;BME280;45224;50.904;6.038;2023-09-19T04:32:38;99291.91;;;14.75;83.00
59419;BME280;45224;50.904;6.038;2023-09-19T04:34:12;99299.88;;;14.69;83.36
59419;BME280;45224;50.904;6.038;2023-09-19T04:35:49;99295.72;;;14.62;83.35
59419;BME280;45224;50.904;6.038;2023-09-19T04:37:19;99292.13;;;14.66;83.69
59419;BME280;45224;50.904;6.038;2023-09-19T04:38:50;99299.00;;;14.70;83.47
59419;BME280;45224;50.904;6.038;2023-09-19T04:40:20;99306.09;;;14.64;83.63
59419;BME280;45224;50.904;6.038;2023-09-19T04:41:51;99301.59;;;14.70;83.60
59419;BME280;45224;50.904;6.038;2023-09-19T04:43:21;99294.91;;;14.60;83.42
59419;BME280;45224;50.904;6.038;2023-09-19T04:44:52;99299.22;;;14.61;83.82
59419;BME280;45224;50.904;6.038;2023-09-19T04:46:23;99306.13;;;14.62;84.03
59419;BME280;45224;50.904;6.038;2023-09-19T04:47:54;99312.84;;;14.71;83.52
59419;BME280;45224;50.904;6.038;2023-09-19T04:49:25;99317.22;;;14.70;83.53
59419;BME280;45224;50.904;6.038;2023-09-19T04:50:55;99305.91;;;14.71;83.28
59419;BME280;45224;50.904;6.038;2023-09-19T04:52:26;99312.75;;;14.75;82.97
59419;BME280;45224;50.904;6.038;2023-09-19T04:53:56;99323.16;;;14.75;83.06
59419;BME280;45224;50.904;6.038;2023-09-19T04:55:27;99324.06;;;14.74;83.20
59419;BME280;45224;50.904;6.038;2023-09-19T04:56:57;99328.31;;;14.77;83.09
59419;BME280;45224;50.904;6.038;2023-09-19T04:58:28;99318.84;;;14.74;82.98
59419;BME280;45224;50.904;6.038;2023-09-19T04:59:59;99312.91;;;14.68;83.24
59419;BME280;45224;50.904;6.038;2023-09-19T05:01:29;99321.50;;;14.73;83.06
59419;BME280;45224;50.904;6.038;2023-09-19T05:03:00;99319.81;;;14.70;83.51
59419;BME280;45224;50.904;6.038;2023-09-19T05:04:30;99323.09;;;14.77;83.17
59419;BME280;45224;50.904;6.038;2023-09-19T05:06:02;99328.31;;;14.77;83.12
59419;BME280;45224;50.904;6.038;2023-09-19T05:07:34;99328.53;;;14.68;83.62
59419;BME280;45224;50.904;6.038;2023-09-19T05:09:05;99333.75;;;14.66;83.73
59419;BME280;45224;50.904;6.038;2023-09-19T05:10:35;99325.03;;;14.69;83.70
59419;BME280;45224;50.904;6.038;2023-09-19T05:12:08;99325.88;;;14.69;83.69
59419;BME280;45224;50.904;6.038;2023-09-19T05:13:41;99327.63;;;14.70;83.77
59419;BME280;45224;50.904;6.038;2023-09-19T05:15:11;99328.41;;;14.72;83.72
59419;BME280;45224;50.904;6.038;2023-09-19T05:16:42;99320.63;;;14.72;83.65
59419;BME280;45224;50.904;6.038;2023-09-19T05:18:13;99327.81;;;14.61;84.29
59419;BME280;45224;50.904;6.038;2023-09-19T05:19:43;99331.34;;;14.60;84.60
59419;BME280;45224;50.904;6.038;2023-09-19T05:21:14;99351.16;;;14.64;84.36
59419;BME280;45224;50.904;6.038;2023-09-19T05:22:44;99341.75;;;14.58;84.65
59419;BME280;45224;50.904;6.038;2023-09-19T05:24:16;99344.41;;;14.55;84.95
59419;BME280;45224;50.904;6.038;2023-09-19T05:25:47;99347.06;;;14.54;85.38
59419;BME280;45224;50.904;6.038;2023-09-19T05:27:17;99352.19;;;14.57;85.22
59419;BME280;45224;50.904;6.038;2023-09-19T05:28:48;99346.09;;;14.56;85.44
59419;BME280;45224;50.904;6.038;2023-09-19T05:30:18;99353.91;;;14.56;85.58
59419;BME280;45224;50.904;6.038;2023-09-19T05:31:50;99354.00;;;14.53;85.73
59419;BME280;45224;50.904;6.038;2023-09-19T05:33:21;99367.25;;;14.42;86.61
59419;BME280;45224;50.904;6.038;2023-09-19T05:34:51;99355.81;;;14.50;86.22
59419;BME280;45224;50.904;6.038;2023-09-19T05:36:23;99350.00;;;14.38;87.32
59419;BME280;45224;50.904;6.038;2023-09-19T05:37:54;99348.06;;;14.47;86.63
59419;BME280;45224;50.904;6.038;2023-09-19T05:39:25;99362.66;;;14.54;86.25
59419;BME280;45224;50.904;6.038;2023-09-19T05:40:56;99358.31;;;14.54;86.30
59419;BME280;45224;50.904;6.038;2023-09-19T05:42:26;99367.97;;;14.49;87.08
59419;BME280;45224;50.904;6.038;2023-09-19T05:43:57;99368.13;;;14.41;87.76
59419;BME280;45224;50.904;6.038;2023-09-19T05:45:29;99366.22;;;14.50;87.13
59419;BME280;45224;50.904;6.038;2023-09-19T05:47:01;99381.03;;;14.46;87.40
59419;BME280;45224;50.904;6.038;2023-09-19T05:48:31;99383.53;;;14.51;87.51
59419;BME280;45224;50.904;6.038;2023-09-19T05:50:03;99379.19;;;14.51;87.31
59419;BME280;45224;50.904;6.038;2023-09-19T05:51:33;99378.28;;;14.54;87.10
59419;BME280;45224;50.904;6.038;2023-09-19T05:53:05;99384.31;;;14.54;86.79
59419;BME280;45224;50.904;6.038;2023-09-19T05:54:36;99383.38;;;14.60;86.50
59419;BME280;45224;50.904;6.038;2023-09-19T05:56:07;99397.22;;;14.59;86.69
59419;BME280;45224;50.904;6.038;2023-09-19T05:57:39;99387.75;;;14.55;87.23
59419;BME280;45224;50.904;6.038;2023-09-19T05:59:10;99393.78;;;14.60;86.72
59419;BME280;45224;50.904;6.038;2023-09-19T06:00:42;99391.19;;;14.58;87.12
59419;BME280;45224;50.904;6.038;2023-09-19T06:02:14;99392.91;;;14.58;87.27
59419;BME280;45224;50.904;6.038;2023-09-19T06:03:45;99404.19;;;14.60;86.91
59419;BME280;45224;50.904;6.038;2023-09-19T06:05:15;99400.78;;;14.55;87.27
59419;BME280;45224;50.904;6.038;2023-09-19T06:06:46;99396.41;;;14.57;87.67
59419;BME280;45224;50.904;6.038;2023-09-19T06:08:18;99398.94;;;14.62;86.83
59419;BME280;45224;50.904;6.038;2023-09-19T06:09:49;99397.19;;;14.62;86.87
59419;BME280;45224;50.904;6.038;2023-09-19T06:11:19;99402.44;;;14.59;87.30
59419;BME280;45224;50.904;6.038;2023-09-19T06:12:50;99395.72;;;14.49;87.74
59419;BME280;45224;50.904;6.038;2023-09-19T06:14:21;99397.19;;;14.62;86.95
59419;BME280;45224;50.904;6.038;2023-09-19T06:15:52;99390.19;;;14.64;87.09
59419;BME280;45224;50.904;6.038;2023-09-19T06:17:22;99393.72;;;14.63;87.38
59419;BME280;45224;50.904;6.038;2023-09-19T06:18:53;99393.72;;;14.63;87.59
59419;BME280;45224;50.904;6.038;2023-09-19T06:20:25;99391.94;;;14.64;87.08
59419;BME280;45224;50.904;6.038;2023-09-19T06:21:56;99391.91;;;14.65;87.89
59419;BME280;45224;50.904;6.038;2023-09-19T06:23:26;99391.91;;;14.65;87.61
59419;BME280;45224;50.904;6.038;2023-09-19T06:24:59;99390.19;;;14.64;87.62
59419;BME280;45224;50.904;6.038;2023-09-19T06:26:29;99398.75;;;14.69;87.42
59419;BME280;45224;50.904;6.038;2023-09-19T06:28:01;99395.25;;;14.70;87.56
59419;BME280;45224;50.904;6.038;2023-09-19T06:29:34;99392.63;;;14.72;87.74
59419;BME280;45224;50.904;6.038;2023-09-19T06:31:07;99399.31;;;14.82;87.49
59419;BME280;45224;50.904;6.038;2023-09-19T06:32:41;99391.53;;;14.81;87.03
59419;BME280;45224;50.904;6.038;2023-09-19T06:34:14;99390.63;;;14.83;87.33
59419;BME280;45224;50.904;6.038;2023-09-19T06:35:48;99392.19;;;14.90;86.84
59419;BME280;45224;50.904;6.038;2023-09-19T06:37:19;99398.94;;;14.99;86.70
59419;BME280;45224;50.904;6.038;2023-09-19T06:38:49;99390.19;;;15.00;86.65
59419;BME280;45224;50.904;6.038;2023-09-19T06:40:21;99392.66;;;15.06;86.14
59419;BME280;45224;50.904;6.038;2023-09-19T06:41:52;99389.88;;;15.14;85.50
59419;BME280;45224;50.904;6.038;2023-09-19T06:43:26;99394.31;;;15.10;85.87
59419;BME280;45224;50.904;6.038;2023-09-19T06:44:56;99397.06;;;15.04;85.85
59419;BME280;45224;50.904;6.038;2023-09-19T06:46:27;99384.13;;;15.01;85.97
59419;BME280;45224;50.904;6.038;2023-09-19T06:48:03;99388.28;;;15.08;85.09
59419;BME280;45224;50.904;6.038;2023-09-19T06:49:33;99379.53;;;15.11;85.07
59419;BME280;45224;50.904;6.038;2023-09-19T06:51:04;99387.31;;;15.12;85.03
59419;BME280;45224;50.904;6.038;2023-09-19T06:52:35;99392.50;;;15.12;85.04
59419;BME280;45224;50.904;6.038;2023-09-19T06:54:05;99397.56;;;15.19;84.85
59419;BME280;45224;50.904;6.038;2023-09-19T06:55:36;99392.56;;;15.11;85.33
59419;BME280;45224;50.904;6.038;2023-09-19T06:57:07;99397.00;;;15.07;85.37
59419;BME280;45224;50.904;6.038;2023-09-19T06:58:39;99403.22;;;15.00;85.22
59419;BME280;45224;50.904;6.038;2023-09-19T07:00:11;99406.31;;;15.16;85.04
59419;BME280;45224;50.904;6.038;2023-09-19T07:01:54;99398.41;;;15.19;85.49
59419;BME280;45224;50.904;6.038;2023-09-19T07:03:25;99401.72;;;15.26;84.72
59419;BME280;45224;50.904;6.038;2023-09-19T07:04:57;99401.88;;;15.21;85.21
59419;BME280;45224;50.904;6.038;2023-09-19T07:06:28;99400.91;;;15.24;84.89
59419;BME280;45224;50.904;6.038;2023-09-19T07:08:01;99398.34;;;15.22;85.15
59419;BME280;45224;50.904;6.038;2023-09-19T07:09:32;99398.09;;;15.33;84.75
59419;BME280;45224;50.904;6.038;2023-09-19T07:11:03;99405.75;;;15.39;84.49
59419;BME280;45224;50.904;6.038;2023-09-19T07:12:36;99396.84;;;15.46;83.91
59419;BME280;45224;50.904;6.038;2023-09-19T07:14:06;99408.13;;;15.47;83.74
59419;BME280;45224;50.904;6.038;2023-09-19T07:15:38;99400.56;;;15.38;83.79
59419;BME280;45224;50.904;6.038;2023-09-19T07:17:11;99408.34;;;15.39;83.71
59419;BME280;45224;50.904;6.038;2023-09-19T07:18:42;99403.78;;;15.47;83.56
59419;BME280;45224;50.904;6.038;2023-09-19T07:20:14;99413.38;;;15.45;83.29
59419;BME280;45224;50.904;6.038;2023-09-19T07:21:46;99416.66;;;15.54;83.37
59419;BME280;45224;50.904;6.038;2023-09-19T07:23:18;99416.50;;;15.58;82.99
59419;BME280;45224;50.904;6.038;2023-09-19T07:24:49;99423.47;;;15.58;82.58
59419;BME280;45224;50.904;6.038;2023-09-19T07:26:19;99422.69;;;15.56;82.73
59419;BME280;45224;50.904;6.038;2023-09-19T07:27:50;99431.22;;;15.61;82.51
59419;BME280;45224;50.904;6.038;2023-09-19T07:29:21;99431.31;;;15.58;82.84
59419;BME280;45224;50.904;6.038;2023-09-19T07:30:51;99427.72;;;15.62;82.99
59419;BME280;45224;50.904;6.038;2023-09-19T07:32:22;99423.22;;;15.68;82.58
59419;BME280;45224;50.904;6.038;2023-09-19T07:33:53;99421.41;;;15.70;83.09
59419;BME280;45224;50.904;6.038;2023-09-19T07:35:24;99424.75;;;15.76;81.99
59419;BME280;45224;50.904;6.038;2023-09-19T07:36:55;99414.09;;;15.85;82.04
59419;BME280;45224;50.904;6.038;2023-09-19T07:38:26;99420.13;;;15.87;81.82
59419;BME280;45224;50.904;6.038;2023-09-19T07:39:57;99420.75;;;15.95;81.28
59419;BME280;45224;50.904;6.038;2023-09-19T07:41:28;99429.19;;;16.05;81.04
59419;BME280;45224;50.904;6.038;2023-09-19T07:43:00;99430.19;;;16.01;80.72
59419;BME280;45224;50.904;6.038;2023-09-19T07:44:31;99433.25;;;16.15;80.70
59419;BME280;45224;50.904;6.038;2023-09-19T07:46:06;99426.22;;;16.17;79.97
59419;BME280;45224;50.904;6.038;2023-09-19T07:47:48;99422.66;;;16.21;79.59
59419;BME280;45224;50.904;6.038;2023-09-19T07:49:19;99422.44;;;16.28;79.39
59419;BME280;45224;50.904;6.038;2023-09-19T07:50:49;99426.72;;;16.30;80.36
59419;BME280;45224;50.904;6.038;2023-09-19T07:52:20;99426.50;;;16.38;79.34
59419;BME280;45224;50.904;6.038;2023-09-19T07:53:53;99424.66;;;16.41;78.67
59419;BME280;45224;50.904;6.038;2023-09-19T07:55:25;99413.06;;;16.50;78.33
59419;BME280;45224;50.904;6.038;2023-09-19T07:56:56;99419.94;;;16.54;77.51
59419;BME280;45224;50.904;6.038;2023-09-19T07:58:26;99409.50;;;16.54;77.38
59419;BME280;45224;50.904;6.038;2023-09-19T07:59:57;99413.50;;;16.65;77.51
59419;BME280;45224;50.904;6.038;2023-09-19T08:01:27;99422.31;;;16.62;76.73
59419;BME280;45224;50.904;6.038;2023-09-19T08:02:58;99407.03;;;16.78;76.38
59419;BME280;45224;50.904;6.038;2023-09-19T08:04:28;99417.38;;;16.81;76.62
59419;BME280;45224;50.904;6.038;2023-09-19T08:05:59;99414.97;;;16.75;76.40
59419;BME280;45224;50.904;6.038;2023-09-19T08:07:30;99411.41;;;16.76;75.99
59419;BME280;45224;50.904;6.038;2023-09-19T08:09:01;99411.78;;;16.93;76.20
59419;BME280;45224;50.904;6.038;2023-09-19T08:10:37;99410.19;;;16.89;75.16
59419;BME280;45224;50.904;6.038;2023-09-19T08:12:10;99416.91;;;16.96;74.71
59419;BME280;45224;50.904;6.038;2023-09-19T08:13:41;99415.63;;;17.08;74.65
59419;BME280;45224;50.904;6.038;2023-09-19T08:15:18;99419.72;;;17.17;73.86
59419;BME280;45224;50.904;6.038;2023-09-19T08:16:49;99418.75;;;17.20;74.16
59419;BME280;45224;50.904;6.038;2023-09-19T08:18:20;99423.13;;;17.19;73.33